Latest Coastal Weather Observations for Port Lincoln Airport

IDS60701

Issued at 8:31 pm CDT Sunday 22 October 2017 (issued every 10 minutes, with the page automatically refreshed every 10 minutes)

About coastal observations | Map of coastal stations | Coastal observations for SA | Marine services | Other Formats
Station Details ID: 018192 Name: PORT LINCOLN AWS Lat: -34.60 Lon: 135.88 Height: 8.5 m
Data from the previous 72 hours. | See also: Recent months at Port Lincoln Airport
Date/Time
CDT
Temp
°C
Wind Pressure Rain since
9am
mm
Weather Cloud Vis
km
Sea
Height
m
Swell
Dir  Spd
kts
Gust
kts
hPa Trend Height
m
Period
s
Dir
22/08:30pm 14.1 SSE 9 10 1022.5 - - - Cloudy 50 - - - -
22/08:00pm 14.3 SE 8 11 1022.2 - 0.0 - Cloudy 10 - - - -
22/07:30pm 14.6 SSE 10 16 1021.9 - 0.0 - Cloudy 10 - - - -
22/07:00pm 14.8 SE 11 14 1021.9 - 0.0 - Cloudy 10 - - - -
22/06:30pm 15.0 SE 11 14 1022.0 - 0.0 - Cloudy 10 - - - -
22/06:00pm 15.3 SSE 11 14 1021.9 - 0.0 - Cloudy 10 - - - -
22/05:30pm 16.0 SSE 14 17 1021.7 - 0.0 - Partly cloudy 10 - - - -
22/05:00pm 16.8 SE 13 17 1021.9 - 0.0 - Partly cloudy 10 - - - -
22/04:30pm 17.2 SSE 11 15 1022.2 - 0.0 - Partly cloudy 10 - - - -
22/04:00pm 17.3 SSE 12 16 1022.4 - 0.0 - Cloudy 10 - - - -
22/03:30pm 16.4 SE 13 17 1022.8 - 0.0 - Cloudy 10 - - - -
22/03:00pm 15.9 S 13 16 1023.4 - 0.0 - Cloudy 10 - - - -
22/02:30pm 16.3 SSE 11 14 1023.7 - 0.0 - Cloudy 10 - - - -
22/02:00pm 16.4 SSE 9 11 1023.8 - 0.0 - Cloudy 10 - - - -
22/01:30pm 16.1 SSE 9 11 1023.9 - 0.0 - Cloudy 10 - - - -
22/01:00pm 16.5 SSE 8 11 1024.0 - 0.0 - Partly cloudy 10 - - - -
22/12:30pm 15.8 S 7 11 1024.3 - 0.0 - Cloudy 10 - - - -
22/12:00pm 15.5 SSE 7 10 1024.6 - 0.0 - Cloudy 10 - - - -
22/11:30am 15.6 S 8 11 1024.8 - 0.0 - Cloudy 10 - - - -
22/11:00am 15.5 SSE 8 11 1025.0 - 0.0 - Cloudy 10 - - - -
22/10:30am 14.6 S 10 13 1025.1 - 0.0 - Partly cloudy 10 - - - -
22/10:00am 14.4 S 9 12 1025.0 - 0.0 - Partly cloudy 10 - - - -
22/09:30am 14.6 S 10 14 1025.1 - 0.0 - Partly cloudy 10 - - - -
22/09:00am 13.8 SSW 8 11 1025.1 - 0.0 - Cloudy 10 - - - -
22/08:30am 13.8 SSE 8 13 1024.9 - 0.0 - Cloudy 10 - - - -
22/08:00am 13.2 SE 9 16 1024.9 - 0.0 - Cloudy 10 - - - -
22/07:30am 13.1 SSE 9 12 1024.8 - 0.0 - Cloudy 10 - - - -
22/07:00am 12.9 SSE 12 16 1024.7 - 0.0 - Cloudy 10 - - - -
22/06:30am 13.0 S 12 17 1024.5 - 0.0 - Cloudy 10 - - - -
22/06:00am 13.0 SSE 10 13 1024.8 - 0.0 - Cloudy 10 - - - -
22/05:30am 12.9 SSE 11 15 1024.6 - 0.0 - Cloudy 10 - - - -
22/05:00am 13.0 S 12 14 1024.6 - 0.0 - Cloudy 10 - - - -
22/04:30am 13.1 S 13 16 1024.5 - 0.0 - Cloudy 10 - - - -
22/04:00am 13.2 SSE 12 17 1024.5 - 0.0 - Cloudy 10 - - - -
22/03:30am 12.9 SSE 12 18 1024.9 - 0.0 - Cloudy 10 - - - -
22/03:00am 13.4 SSE 11 15 1024.9 - 0.0 - Cloudy 10 - - - -
22/02:30am 13.5 SSE 11 16 1025.1 - 0.0 - Cloudy 10 - - - -
22/02:00am 13.3 SSE 12 15 1025.6 - 0.0 - Cloudy 10 - - - -
22/01:30am 13.2 S 11 14 1026.0 - 0.0 - Cloudy 10 - - - -
22/01:00am 13.1 S 13 17 1026.5 - 0.0 - Cloudy 10 - - - -
22/12:30am 13.2 S 12 15 1026.7 - 0.0 - Cloudy 10 - - - -
22/12:00am 13.1 SSE 13 18 1026.9 - 0.0 - Cloudy 10 - - - -
 
Date/Time
CDT
Temp
°C
Wind Pressure Rain since
9am
mm
Weather Cloud Vis
km
Sea
Height
m
Swell
Dir  Spd
kts
Gust
kts
hPa Trend Height
m
Period
s
Dir
21/11:30pm 12.3 SSW 7 12 1027.2 - 0.0 - Partly cloudy 10 - - - -
21/11:00pm 11.8 SSE 17 23 1027.5 - 0.0 - Cloudy 10 - - - -
21/10:30pm 12.9 SSE 15 18 1027.6 - 0.0 - Cloudy 10 - - - -
21/10:00pm 13.4 S 13 17 1027.9 - 0.0 - Cloudy 10 - - - -
21/09:30pm 13.5 S 14 19 1027.9 - 0.0 - Cloudy 10 - - - -
21/09:00pm 13.4 SSE 15 21 1028.0 - 0.0 - Cloudy 10 - - - -
21/08:30pm 13.4 S 15 21 1028.0 - 0.0 - Cloudy 10 - - - -
21/08:00pm 13.5 S 15 19 1027.9 - 0.0 - Cloudy 10 - - - -
21/07:30pm 13.7 SSW 13 18 1027.7 - 0.0 - Cloudy 10 - - - -
21/07:00pm 14.0 S 13 16 1027.7 - 0.0 - Cloudy 10 - - - -
21/06:30pm 14.5 S 14 19 1027.7 - 0.0 - Cloudy 10 - - - -
21/06:00pm 15.2 S 15 19 1027.8 - 0.0 - - 10 - - - -
21/05:30pm 15.2 S 15 18 1027.9 - 0.0 - Partly cloudy 10 - - - -
21/05:00pm 15.7 S 15 19 1027.9 - 0.0 - Partly cloudy 10 - - - -
21/04:30pm 15.9 S 16 19 1028.0 - 0.0 - - 10 - - - -
21/04:00pm 16.5 S 16 19 1028.2 - 0.0 - - 10 - - - -
21/03:30pm 17.5 S 15 18 1028.5 - 0.0 - - 10 - - - -
21/03:00pm 17.8 SE 12 17 1028.7 - 0.0 - - 10 - - - -
21/02:30pm 16.7 SE 11 17 1028.9 - 0.0 - - 10 - - - -
21/02:00pm 16.9 SE 10 14 1029.3 - 0.0 - Partly cloudy 10 - - - -
21/01:30pm 16.7 SE 10 15 1029.5 - 0.0 - Cloudy 10 - - - -
21/01:00pm 16.4 SE 9 13 1029.7 - 0.0 - Cloudy 10 - - - -
21/12:30pm 16.1 SE 10 14 1030.1 - 0.0 - Cloudy 10 - - - -
21/12:00pm 15.6 SE 9 14 1030.7 - 0.0 - Mostly cloudy 10 - - - -
21/11:30am 15.7 SE 9 15 1030.7 - 0.0 - Cloudy 10 - - - -
21/11:00am 15.0 SE 10 15 1031.0 - 0.0 - Cloudy 10 - - - -
21/10:30am 15.4 SE 10 14 1031.1 - 0.0 - Cloudy 10 - - - -
21/10:00am 14.7 ESE 11 17 1031.3 - 0.0 - Cloudy 10 - - - -
21/09:30am 14.4 SE 10 14 1031.4 - 0.0 - Partly cloudy 10 - - - -
21/09:00am 13.5 SE 12 16 1031.1 - 0.0 - Mostly cloudy 10 - - - -
21/08:30am 13.4 SSE 12 15 1030.9 - 0.0 - Cloudy 10 - - - -
21/08:00am 13.1 SSE 12 17 1030.8 - 0.0 - Cloudy 10 - - - -
21/07:30am 12.9 SE 11 15 1030.8 - 0.0 - Cloudy 10 - - - -
21/07:00am 12.6 SSE 12 15 1030.7 - 0.0 - Cloudy 10 - - - -
21/06:30am 12.7 SE 11 16 1030.7 - 0.0 - Cloudy 10 - - - -
21/06:00am 12.4 SE 11 13 1030.4 - 0.0 - Mostly cloudy 10 - - - -
21/05:30am 12.2 SE 11 14 1030.3 - 0.0 - Partly cloudy 10 - - - -
21/05:00am 12.3 ESE 9 11 1030.2 - 0.0 - Cloudy 10 - - - -
21/04:30am 12.5 ESE 11 14 1030.5 - 0.0 - Cloudy 10 - - - -
21/04:00am 12.4 ESE 12 16 1030.4 - 0.0 - Cloudy 10 - - - -
21/03:30am 12.4 ESE 11 16 1030.6 - 0.0 - Partly cloudy 10 - - - -
21/03:00am 12.5 SE 11 15 1030.9 - 0.0 - Mostly cloudy 10 - - - -
21/02:30am 12.3 SE 11 14 1031.3 - 0.0 - Cloudy 10 - - - -
21/02:00am 12.7 ESE 11 15 1031.5 - 0.0 - Cloudy 10 - - - -
21/01:30am 12.7 SE 10 13 1031.8 - 0.0 - Cloudy 10 - - - -
21/01:00am 12.8 SE 11 13 1032.0 - 0.0 - Cloudy 10 - - - -
21/12:30am 13.0 SE 13 18 1032.0 - 0.0 - Cloudy 10 - - - -
21/12:00am 12.8 SE 14 17 1032.1 - 0.0 - Partly cloudy 10 - - - -
 
Date/Time
CDT
Temp
°C
Wind Pressure Rain since
9am
mm
Weather Cloud Vis
km
Sea
Height
m
Swell
Dir  Spd
kts
Gust
kts
hPa Trend Height
m
Period
s
Dir
20/11:30pm 12.9 SE 15 18 1032.3 - 0.0 - - 10 - - - -
20/11:00pm 12.9 SE 16 20 1032.5 - 0.0 - - 10 - - - -
20/10:30pm 12.9 SSE 15 19 1032.6 - 0.0 - - 10 - - - -
20/10:00pm 13.1 SSE 17 21 1032.5 - 0.0 - - 10 - - - -
20/09:30pm 13.2 SSE 17 21 1032.6 - 0.0 - - 10 - - - -
20/09:00pm 13.2 SSE 17 21 1032.5 - 0.0 - Mostly clear 10 - - - -
20/08:30pm 13.3 SSE 16 20 1032.5 - 0.0 - Partly cloudy 10 - - - -
20/08:00pm 13.5 SSE 16 20 1032.2 - 0.0 - - 10 - - - -
20/07:30pm 13.9 SSE 15 19 1032.0 - 0.0 - - 10 - - - -
20/07:00pm 14.9 SSE 15 19 1031.6 - 0.0 - - 10 - - - -
20/06:30pm 15.6 SSE 16 20 1031.2 - 0.0 - - 10 - - - -
20/06:00pm 16.2 SE 17 21 1031.1 - 0.0 - - 10 - - - -
20/05:30pm 16.6 SE 16 20 1030.8 - 0.0 - - 10 - - - -
20/05:00pm 17.5 SSE 15 18 1030.9 - 0.0 - - 10 - - - -
20/04:30pm 17.1 SE 14 20 1030.9 - 0.0 - - 10 - - - -
20/04:00pm 17.1 SE 14 18 1030.9 - 0.0 - - 10 - - - -
20/03:30pm 17.1 SE 15 20 1031.1 - 0.0 - - 10 - - - -
20/03:00pm 16.9 SE 15 20 1031.3 - 0.0 - - 10 - - - -
20/02:30pm 16.7 SE 12 18 1031.7 - 0.0 - - 10 - - - -
20/02:00pm 17.8 SE 12 17 1031.9 - 0.0 - Partly cloudy 10 - - - -
20/01:30pm 17.3 SE 14 20 1032.0 - 0.0 - Cloudy 10 - - - -
20/01:00pm 16.5 ESE 12 17 1032.1 - 0.0 - Cloudy 10 - - - -
20/12:30pm 18.0 SE 10 16 1032.3 - 0.0 - Partly cloudy 10 - - - -
20/12:00pm 16.6 SE 12 17 1032.7 - 0.0 - - 10 - - - -
20/11:30am 16.7 SE 10 15 1033.0 - 0.0 - - 10 - - - -
20/11:00am 16.4 SE 12 16 1033.2 - 0.0 - - 10 - - - -
20/10:30am 16.4 SE 11 17 1033.0 - 0.0 - Partly cloudy 10 - - - -
20/10:00am 15.6 SSE 12 17 1033.0 - 0.0 - Cloudy 10 - - - -
20/09:30am 15.8 SSE 13 17 1032.5 - 0.0 - Cloudy 10 - - - -
20/09:00am 14.8 S 13 18 1032.3 - 0.0 - Cloudy 10 - - - -
20/08:30am 14.7 SSE 15 19 1032.0 - 0.0 - Cloudy 10 - - - -
20/08:00am 14.2 SSE 15 19 1031.5 - 0.0 - Cloudy 10 - - - -
20/07:30am 13.6 S 10 14 1031.2 - 0.0 - Partly cloudy 10 - - - -
20/07:00am 11.9 SSW 7 11 1030.9 - 0.0 - Partly cloudy 10 - - - -
20/06:30am 12.7 SSE 12 15 1030.4 - 0.0 - - 10 - - - -
20/06:00am 12.8 SSE 13 17 1030.2 - 0.0 - - 10 - - - -
20/05:30am 13.2 S 13 16 1029.9 - 0.0 - Partly cloudy 10 - - - -
20/05:00am 13.6 SSE 12 15 1029.6 - 0.0 - Cloudy 10 - - - -
20/04:30am 13.6 SSE 13 17 1029.3 - 0.0 - Partly cloudy 10 - - - -
20/04:00am 13.6 SSE 14 19 1029.1 - 0.0 - Partly cloudy 10 - - - -
20/03:30am 13.8 S 12 17 1029.0 - 0.0 - Partly cloudy 10 - - - -
20/03:00am 13.5 SSE 11 14 1029.0 - 0.0 - Mostly cloudy 10 - - - -
20/02:30am 13.3 S 15 18 1029.2 - 0.0 - Partly cloudy 10 - - - -
20/02:00am 11.4 SW 7 9 1029.2 - 0.0 - Partly cloudy 10 - - - -
20/01:30am 11.9 SW 7 9 1029.3 - 0.0 - Partly cloudy 10 - - - -
20/01:00am 11.8 WSW 7 10 1029.3 - 0.0 - Partly cloudy 10 - - - -
20/12:30am 10.7 WSW 8 9 1029.5 - 0.0 - Partly cloudy 10 - - - -
20/12:00am 10.6 WSW 7 9 1029.4 - 0.0 - - 10 - - - -
 
Date/Time
CDT
Temp
°C
Wind Pressure Rain since
9am
mm
Weather Cloud Vis
km
Sea
Height
m
Swell
Dir  Spd
kts
Gust
kts
hPa Trend Height
m
Period
s
Dir
19/11:30pm 11.0 WSW 8 9 1029.4 - 0.0 - - 10 - - - -
19/11:00pm 10.8 WSW 7 9 1029.3 - 0.0 - Partly cloudy 10 - - - -
19/10:30pm 10.6 WSW 7 9 1029.2 - 0.0 - - 10 - - - -
19/10:00pm 11.1 WSW 7 9 1029.1 - 0.0 - - 10 - - - -
19/09:30pm 12.1 SW 7 9 1028.9 - 0.0 - Partly cloudy 10 - - - -
19/09:00pm 11.9 WSW 7 9 1028.6 - 0.0 - Mostly clear 10 - - - -

Other Formats:

Comma delimited format used in spreadsheet applications
http://www.bom.gov.au/fwo/IDS60701/IDS60701.95661.axf

JavaScript Object Notation format (JSON) in row-major order
http://www.bom.gov.au/fwo/IDS60701/IDS60701.95661.json